Time;durP1;ratioP1;P1;durP2;ratioP2;P2;SDS_P1;SDS_P2;PMS_P1;PMS_P2;Temp;Humidity;BMP_temperature;BMP_pressure;BME280_temperature;BME280_humidity;BME280_pressure;Samples;Min_cycle;Max_cycle;Signal;HPM_P1;HPM_P2
2021/09/27 00:01:31;;;;;;;0.30;0.30;;;;;;;3.57;55.09;98887.56;5073794;28;20537;-64
2021/09/27 00:03:57;;;;;;;0.20;0.20;;;;;;;3.50;55.41;98879.34;5073810;28;20051;-66
2021/09/27 00:06:23;;;;;;;0.20;0.20;;;;;;;3.47;55.26;98866.13;5073679;28;20503;-63
2021/09/27 00:08:49;;;;;;;0.30;0.30;;;;;;;3.46;55.35;98888.88;5073833;28;20055;-63
2021/09/27 00:11:22;;;;;;;0.30;0.30;;;;;;;3.44;55.35;98881.94;5073754;28;20045;-64
2021/09/27 00:13:55;;;;;;;0.20;0.20;;;;;;;3.46;55.46;98885.31;5073956;28;20041;-62
2021/09/27 00:16:22;;;;;;;0.40;0.40;;;;;;;3.43;55.71;98881.13;5073575;28;20049;-64
2021/09/27 00:18:48;;;;;;;0.20;0.20;;;;;;;3.41;55.57;98879.63;5073474;28;20072;-63
2021/09/27 00:21:22;;;;;;;0.20;0.20;;;;;;;3.42;55.58;98881.31;5073055;28;20072;-63
2021/09/27 00:23:48;;;;;;;0.20;0.20;;;;;;;3.36;55.56;98876.59;5073669;28;20037;-63
2021/09/27 00:26:16;;;;;;;0.20;0.20;;;;;;;3.31;55.74;98886.16;5073593;28;20044;-63
2021/09/27 00:28:42;;;;;;;0.20;0.20;;;;;;;3.30;55.75;98894.50;5072767;28;20036;-63
2021/09/27 00:31:08;;;;;;;0.20;0.20;;;;;;;3.29;55.78;98907.22;5073377;28;20040;-63
2021/09/27 00:33:33;;;;;;;0.30;0.30;;;;;;;3.27;55.96;98906.56;5073770;28;20041;-64
2021/09/27 00:35:59;;;;;;;0.20;0.20;;;;;;;3.24;55.79;98908.78;5073627;28;20070;-63
2021/09/27 00:38:26;;;;;;;0.20;0.20;;;;;;;3.26;56.00;98906.75;5073392;28;20098;-64
2021/09/27 00:40:56;;;;;;;0.20;0.20;;;;;;;3.28;55.94;98912.81;5073063;28;20047;-63
2021/09/27 00:43:23;;;;;;;0.30;0.30;;;;;;;3.26;55.70;98909.47;5073131;28;20450;-63
2021/09/27 00:45:54;;;;;;;0.20;0.20;;;;;;;3.24;56.00;98903.34;5055192;28;20047;-66
2021/09/27 00:48:20;;;;;;;0.20;0.20;;;;;;;3.22;55.99;98908.13;5072990;28;20072;-64
2021/09/27 00:50:51;;;;;;;0.20;0.20;;;;;;;3.21;56.13;98911.88;5073322;28;20044;-63
2021/09/27 00:53:22;;;;;;;0.20;0.20;;;;;;;3.21;56.25;98918.16;5073101;28;20406;-63
2021/09/27 00:55:49;;;;;;;0.20;0.20;;;;;;;3.21;56.10;98925.44;5072787;28;20068;-63
2021/09/27 00:58:18;;;;;;;0.20;0.20;;;;;;;3.19;56.20;98928.34;5072530;28;20127;-63
2021/09/27 01:00:44;;;;;;;0.20;0.20;;;;;;;3.16;56.34;98923.28;5073051;28;20044;-61
2021/09/27 01:03:11;;;;;;;0.20;0.20;;;;;;;3.10;56.23;98926.75;5072874;28;20043;-62
2021/09/27 01:05:42;;;;;;;0.20;0.20;;;;;;;3.08;56.47;98923.38;5072562;28;20048;-63
2021/09/27 01:08:17;;;;;;;0.20;0.20;;;;;;;3.08;56.49;98932.34;5072738;28;20048;-63
2021/09/27 01:11:02;;;;;;;0.20;0.20;;;;;;;3.07;56.32;98938.78;5072506;28;20075;-63
2021/09/27 01:13:45;;;;;;;0.20;0.20;;;;;;;3.03;56.65;98937.47;5072589;28;20580;-62
2021/09/27 01:16:52;;;;;;;0.20;0.20;;;;;;;3.01;56.48;98936.00;5072508;28;20044;-63
2021/09/27 01:19:54;;;;;;;0.20;0.20;;;;;;;3.02;56.43;98948.50;5054914;28;20048;-62
2021/09/27 01:22:50;;;;;;;0.20;0.20;;;;;;;2.97;56.53;98949.06;5072585;28;20088;-64
2021/09/27 01:25:47;;;;;;;0.20;0.20;;;;;;;2.90;56.67;98954.38;5072224;28;20037;-62
2021/09/27 01:28:43;;;;;;;0.20;0.20;;;;;;;2.86;56.75;98952.22;5072291;28;20053;-63
2021/09/27 01:31:25;;;;;;;0.20;0.20;;;;;;;2.87;56.79;98959.31;5072314;28;20040;-65
2021/09/27 01:34:07;;;;;;;0.20;0.20;;;;;;;2.84;56.83;98959.69;5071658;28;20145;-62
2021/09/27 01:36:54;;;;;;;0.20;0.20;;;;;;;2.80;56.94;98964.63;5072177;28;20040;-62
2021/09/27 01:39:37;;;;;;;0.85;0.85;;;;;;;2.74;57.11;98957.19;5072406;28;20051;-61
2021/09/27 01:42:17;;;;;;;0.20;0.20;;;;;;;2.68;57.10;98955.22;5072267;28;20041;-62
2021/09/27 01:44:51;;;;;;;0.20;0.20;;;;;;;2.63;57.23;98969.31;5072356;28;20098;-62
2021/09/27 01:47:36;;;;;;;0.35;0.35;;;;;;;2.59;57.45;98978.81;5054433;28;20049;-62
2021/09/27 01:50:23;;;;;;;0.20;0.20;;;;;;;2.56;57.45;98981.91;5072312;28;20044;-64
2021/09/27 01:53:17;;;;;;;0.50;0.50;;;;;;;2.52;57.63;98975.13;5072434;28;20072;-61
2021/09/27 01:56:00;;;;;;;0.32;0.32;;;;;;;2.47;57.65;98980.25;5062689;28;20055;-62
2021/09/27 01:58:55;;;;;;;0.20;0.20;;;;;;;2.39;57.84;98979.28;5071582;28;20036;-64
2021/09/27 02:01:53;;;;;;;0.40;0.40;;;;;;;2.31;58.02;98981.19;5072041;28;20048;-63
2021/09/27 02:04:49;;;;;;;0.30;0.30;;;;;;;2.26;57.90;98987.16;5062886;28;20044;-63
2021/09/27 02:07:16;;;;;;;0.60;0.40;;;;;;;2.20;58.04;98985.16;5028143;28;20056;-64
2021/09/27 02:10:21;;;;;;;0.20;0.20;;;;;;;2.22;57.88;98983.09;5071522;28;20411;-64
2021/09/27 02:12:59;;;;;;;0.30;0.30;;;;;;;2.17;58.10;98988.22;5067337;28;20039;-64
2021/09/27 02:15:37;;;;;;;0.20;0.20;;;;;;;2.13;58.15;98997.72;5071701;28;20115;-65
2021/09/27 02:18:13;;;;;;;0.20;0.20;;;;;;;2.07;58.08;98993.84;5054577;28;20380;-65
2021/09/27 02:20:44;;;;;;;0.20;0.20;;;;;;;2.04;58.43;99005.03;5071830;28;20055;-64
2021/09/27 02:23:12;;;;;;;0.20;0.20;;;;;;;2.00;58.39;99001.81;5071973;28;20478;-64
2021/09/27 02:25:42;;;;;;;0.20;0.20;;;;;;;1.98;58.39;99003.84;5071584;28;20052;-64
2021/09/27 02:28:11;;;;;;;0.20;0.20;;;;;;;1.94;58.54;98997.09;5071591;28;20044;-65
2021/09/27 02:30:52;;;;;;;0.30;0.30;;;;;;;1.94;58.66;99007.94;5072112;28;20119;-65
2021/09/27 02:34:13;;;;;;;0.20;0.20;;;;;;;1.96;58.31;99010.47;5071984;28;20135;-64
2021/09/27 02:36:49;;;;;;;0.30;0.30;;;;;;;1.94;58.55;99007.94;4997108;28;20062;-64
2021/09/27 02:39:42;;;;;;;0.20;0.20;;;;;;;1.94;58.41;99010.63;5071673;28;20048;-65
2021/09/27 02:42:18;;;;;;;0.20;0.20;;;;;;;1.94;58.54;99016.06;5071481;28;20487;-63
2021/09/27 02:44:45;;;;;;;2.35;0.73;;;;;;;1.91;58.38;99035.34;5072720;28;20064;-65
2021/09/27 02:47:20;;;;;;;0.20;0.20;;;;;;;1.92;58.27;99021.66;5075436;28;20487;-64
2021/09/27 02:49:47;;;;;;;0.43;0.43;;;;;;;1.98;58.43;99032.81;5074202;28;20044;-64
2021/09/27 02:52:16;;;;;;;0.20;0.20;;;;;;;2.02;58.30;99026.88;5074443;28;20051;-64
2021/09/27 02:54:55;;;;;;;0.32;0.32;;;;;;;2.02;58.27;99045.81;5075176;28;20415;-64
2021/09/27 02:57:38;;;;;;;0.20;0.20;;;;;;;2.03;58.02;99041.25;5074995;28;20110;-64
2021/09/27 03:00:51;;;;;;;0.20;0.20;;;;;;;2.12;57.98;99036.66;5074893;28;20049;-63
2021/09/27 03:03:22;;;;;;;0.20;0.20;;;;;;;2.17;57.89;99066.78;4974871;28;20047;-63
2021/09/27 03:06:12;;;;;;;0.20;0.20;;;;;;;2.17;58.05;99053.25;4974041;28;20520;-64
2021/09/27 03:08:53;;;;;;;0.20;0.20;;;;;;;2.26;57.99;99049.47;5047640;28;20048;-63
2021/09/27 03:11:37;;;;;;;0.20;0.20;;;;;;;2.47;57.33;99054.28;5074901;28;20042;-64
2021/09/27 03:14:31;;;;;;;0.30;0.30;;;;;;;2.72;56.96;99062.28;5074911;28;20055;-64
2021/09/27 03:17:07;;;;;;;0.20;0.20;;;;;;;2.94;56.36;99066.06;5074753;28;20044;-64
2021/09/27 03:20:08;;;;;;;0.30;0.20;;;;;;;3.26;55.77;99061.44;5074784;28;20052;-68
2021/09/27 03:22:52;;;;;;;0.20;0.20;;;;;;;3.56;55.29;99069.66;4990251;28;20070;-63
2021/09/27 03:25:41;;;;;;;0.20;0.20;;;;;;;3.66;55.19;99062.09;5074854;28;20044;-63
2021/09/27 03:28:18;;;;;;;0.20;0.20;;;;;;;3.69;55.35;99080.75;5074477;28;20036;-63
2021/09/27 03:31:10;;;;;;;0.20;0.20;;;;;;;3.52;55.81;99077.34;5074438;28;20044;-64
2021/09/27 03:34:02;;;;;;;0.20;0.20;;;;;;;3.33;56.33;99084.13;5074498;28;20036;-63
2021/09/27 03:36:47;;;;;;;0.20;0.20;;;;;;;3.18;56.84;99080.47;5056252;28;20036;-63
2021/09/27 03:39:39;;;;;;;0.20;0.20;;;;;;;3.15;56.85;99087.97;5074452;28;20044;-64
2021/09/27 03:42:54;;;;;;;0.20;0.20;;;;;;;3.21;56.88;99088.25;5028052;28;20123;-63
2021/09/27 03:45:27;;;;;;;0.20;0.20;;;;;;;3.17;56.85;99090.50;4988954;28;20037;-63
2021/09/27 03:48:14;;;;;;;0.20;0.20;;;;;;;3.06;57.41;99088.19;5074268;28;20304;-63
2021/09/27 03:50:45;;;;;;;0.30;0.30;;;;;;;2.94;57.44;99091.31;5074280;28;20037;-63
2021/09/27 03:53:17;;;;;;;0.20;0.20;;;;;;;2.86;57.80;99087.81;5074169;28;20041;-63
2021/09/27 03:55:55;;;;;;;0.20;0.20;;;;;;;2.84;57.74;99095.28;5074007;28;20529;-64
2021/09/27 03:58:27;;;;;;;0.20;0.20;;;;;;;2.91;57.79;99098.97;5073506;28;20040;-65
2021/09/27 04:01:06;;;;;;;0.40;0.40;;;;;;;2.91;57.63;99107.09;5073824;28;20048;-64
2021/09/27 04:04:03;;;;;;;0.20;0.20;;;;;;;2.79;57.85;99110.19;5056123;28;20498;-65
2021/09/27 04:06:55;;;;;;;0.20;0.20;;;;;;;2.65;57.94;99115.53;5058787;28;20085;-65
2021/09/27 04:09:26;;;;;;;0.20;0.20;;;;;;;2.57;58.10;99111.00;5063194;28;20082;-64
2021/09/27 04:12:03;;;;;;;0.20;0.20;;;;;;;2.54;58.26;99111.34;5063136;28;20067;-65
2021/09/27 04:14:50;;;;;;;0.20;0.20;;;;;;;2.49;58.44;99108.31;5063171;28;20040;-65
2021/09/27 04:17:34;;;;;;;0.20;0.20;;;;;;;2.50;58.49;99128.97;5063778;28;20105;-64
2021/09/27 04:20:03;;;;;;;0.30;0.30;;;;;;;2.44;58.43;99117.84;5062989;28;20042;-63
2021/09/27 04:22:36;;;;;;;0.20;0.20;;;;;;;2.48;58.16;99112.91;5062088;28;20037;-65
2021/09/27 04:25:15;;;;;;;0.20;0.20;;;;;;;2.49;58.43;99106.47;5063159;28;20037;-63
2021/09/27 04:28:08;;;;;;;0.20;0.20;;;;;;;2.49;58.17;99113.72;5063271;28;20089;-63
2021/09/27 04:31:08;;;;;;;0.25;0.25;;;;;;;2.55;58.00;99110.34;5062182;28;20079;-65
2021/09/27 04:33:59;;;;;;;0.20;0.20;;;;;;;2.58;58.02;99135.22;5062779;28;20040;-63
2021/09/27 04:36:32;;;;;;;0.20;0.20;;;;;;;2.55;58.01;99132.03;5062951;28;20044;-64
2021/09/27 04:39:06;;;;;;;0.20;0.20;;;;;;;2.57;58.03;99127.25;5062747;28;20195;-63
2021/09/27 04:42:00;;;;;;;0.30;0.30;;;;;;;2.55;57.94;99151.84;5062073;28;20064;-64
2021/09/27 04:44:35;;;;;;;0.30;0.30;;;;;;;2.50;58.14;99143.38;5061062;28;20056;-64
2021/09/27 04:47:26;;;;;;;0.20;0.20;;;;;;;2.56;58.38;99158.97;5060544;28;20037;-63
2021/09/27 04:50:10;;;;;;;0.20;0.20;;;;;;;2.61;57.95;99153.00;5061941;28;20094;-62
2021/09/27 04:52:57;;;;;;;0.20;0.20;;;;;;;2.67;57.90;99143.34;5062613;28;20042;-63
2021/09/27 04:56:01;;;;;;;0.20;0.20;;;;;;;2.79;57.65;99140.03;5062059;28;20162;-63
2021/09/27 04:58:45;;;;;;;0.20;0.20;;;;;;;2.81;57.61;99158.84;5044310;28;20036;-63
2021/09/27 05:01:33;;;;;;;0.40;0.40;;;;;;;2.80;57.77;99159.88;5061456;28;20545;-64
2021/09/27 05:04:11;;;;;;;0.20;0.20;;;;;;;2.83;57.70;99147.81;5060670;28;20494;-64
2021/09/27 05:06:59;;;;;;;0.20;0.20;;;;;;;2.93;57.57;99154.72;5062096;28;20064;-64
2021/09/27 05:09:32;;;;;;;0.20;0.20;;;;;;;2.98;57.40;99146.91;5056001;28;20056;-63
2021/09/27 05:12:15;;;;;;;0.20;0.20;;;;;;;3.05;57.43;99155.19;5060851;28;20040;-63
2021/09/27 05:14:57;;;;;;;0.20;0.20;;;;;;;3.16;57.12;99153.91;5047737;28;20037;-64
2021/09/27 05:18:05;;;;;;;0.20;0.20;;;;;;;3.28;56.93;99146.22;5058762;28;20040;-65
2021/09/27 05:20:42;;;;;;;0.20;0.20;;;;;;;3.30;57.02;99165.91;5055647;28;20045;-64
2021/09/27 05:23:14;;;;;;;0.20;0.20;;;;;;;3.25;57.02;99154.72;5058832;28;20049;-64
2021/09/27 05:25:42;;;;;;;0.20;0.20;;;;;;;3.25;57.09;99162.84;5057548;28;20357;-64
2021/09/27 05:28:20;;;;;;;0.20;0.20;;;;;;;3.23;57.19;99154.06;5065240;28;20514;-63
2021/09/27 05:31:17;;;;;;;0.30;0.30;;;;;;;3.30;57.19;99149.63;5070394;28;20067;-65
2021/09/27 05:34:20;;;;;;;0.20;0.20;;;;;;;3.46;56.85;99171.22;5070465;28;20058;-65
2021/09/27 05:36:59;;;;;;;0.20;0.20;;;;;;;3.54;56.65;99193.91;5070750;28;20407;-65
2021/09/27 05:40:02;;;;;;;0.20;0.20;;;;;;;3.50;56.80;99153.53;5070037;28;20143;-64
2021/09/27 05:42:46;;;;;;;0.50;0.50;;;;;;;3.64;56.63;99148.34;5058089;28;20150;-65
2021/09/27 05:45:30;;;;;;;0.30;0.30;;;;;;;3.82;56.31;99170.59;5055452;28;20040;-64
2021/09/27 05:48:14;;;;;;;0.30;0.30;;;;;;;4.01;55.78;99169.25;5055474;28;20033;-63
2021/09/27 05:51:01;;;;;;;0.20;0.20;;;;;;;4.06;55.90;99162.41;5063507;28;20053;-64
2021/09/27 05:53:43;;;;;;;0.20;0.20;;;;;;;4.04;55.91;99163.44;5055813;28;20048;-64
2021/09/27 05:56:16;;;;;;;0.20;0.20;;;;;;;3.95;56.12;99167.25;5059563;28;20037;-64
2021/09/27 05:58:56;;;;;;;0.20;0.20;;;;;;;3.86;56.36;99150.19;5057600;28;20037;-63
2021/09/27 06:01:24;;;;;;;0.20;0.20;;;;;;;3.98;56.30;99168.78;5057589;28;20086;-64
2021/09/27 06:04:03;;;;;;;0.20;0.20;;;;;;;4.14;55.89;99168.63;5057274;28;20037;-63
2021/09/27 06:06:39;;;;;;;0.20;0.20;;;;;;;4.35;55.64;99153.47;5058011;28;20106;-64
2021/09/27 06:09:16;;;;;;;0.20;0.20;;;;;;;4.67;54.93;99157.69;5062448;28;20487;-63
2021/09/27 06:12:24;;;;;;;0.20;0.20;;;;;;;4.75;54.77;99154.03;5059344;28;20495;-63
2021/09/27 06:14:55;;;;;;;0.20;0.20;;;;;;;4.79;54.78;99157.22;5036130;28;20040;-63
2021/09/27 06:17:36;;;;;;;0.25;0.25;;;;;;;4.88;54.88;99151.47;5058661;28;20086;-65
2021/09/27 06:20:26;;;;;;;0.20;0.20;;;;;;;4.86;54.98;99159.00;5050684;28;20494;-62
2021/09/27 06:23:18;;;;;;;0.38;0.38;;;;;;;4.76;55.22;99155.72;5066511;28;20131;-64
2021/09/27 06:26:06;;;;;;;0.20;0.20;;;;;;;4.69;55.50;99162.94;5062619;28;20523;-64
2021/09/27 06:28:51;;;;;;;0.20;0.20;;;;;;;4.64;55.51;99154.50;5073560;28;20040;-64
2021/09/27 06:31:31;;;;;;;0.20;0.20;;;;;;;4.63;55.73;99150.94;5075464;28;20073;-63
2021/09/27 06:34:21;;;;;;;0.20;0.20;;;;;;;4.67;55.68;99157.69;5075823;28;20127;-63
2021/09/27 06:36:48;;;;;;;0.20;0.20;;;;;;;4.78;55.29;99152.81;5057773;28;20530;-63
2021/09/27 06:39:21;;;;;;;0.20;0.20;;;;;;;4.85;55.27;99179.06;5075655;28;20059;-63
2021/09/27 06:41:49;;;;;;;0.20;0.20;;;;;;;4.81;55.31;99152.44;5075355;28;20055;-64
2021/09/27 06:44:16;;;;;;;0.20;0.20;;;;;;;4.70;55.51;99168.19;5075336;28;20040;-63
2021/09/27 06:46:43;;;;;;;0.20;0.20;;;;;;;4.63;55.78;99158.25;5075227;28;20503;-64
2021/09/27 06:49:09;;;;;;;0.25;0.25;;;;;;;4.63;55.68;99152.81;5075495;28;20045;-64
2021/09/27 06:51:41;;;;;;;0.20;0.20;;;;;;;4.63;55.61;99150.09;5074372;28;20133;-62
2021/09/27 06:54:09;;;;;;;0.20;0.20;;;;;;;4.70;55.47;99154.59;5075335;28;20388;-63
2021/09/27 06:56:36;;;;;;;0.20;0.20;;;;;;;4.80;55.24;99156.16;5075192;28;20049;-63
2021/09/27 06:59:02;;;;;;;0.20;0.20;;;;;;;4.83;55.10;99144.91;5074683;28;20101;-63
2021/09/27 07:01:28;;;;;;;0.22;0.22;;;;;;;4.87;54.99;99149.81;5075342;28;20052;-64
2021/09/27 07:03:54;;;;;;;0.20;0.20;;;;;;;4.98;54.84;99159.34;5075335;28;20040;-63
2021/09/27 07:06:20;;;;;;;0.20;0.20;;;;;;;5.09;54.67;99155.28;5064952;28;20139;-65
2021/09/27 07:08:46;;;;;;;0.20;0.20;;;;;;;5.20;54.29;99162.13;5054912;28;20044;-63
2021/09/27 07:11:13;;;;;;;0.20;0.20;;;;;;;5.26;54.15;99155.91;5054795;28;20132;-63
2021/09/27 07:13:39;;;;;;;0.20;0.20;;;;;;;5.42;53.85;99172.00;5054660;28;20040;-63
2021/09/27 07:16:05;;;;;;;0.30;0.30;;;;;;;5.51;53.63;99148.22;5055044;28;20455;-64
2021/09/27 07:18:31;;;;;;;0.20;0.20;;;;;;;5.66;53.39;99150.88;5054934;28;20043;-64
2021/09/27 07:20:59;;;;;;;0.20;0.20;;;;;;;5.82;53.23;99176.19;5054937;28;20056;-64
2021/09/27 07:23:28;;;;;;;0.20;0.20;;;;;;;5.77;53.30;99184.94;5054576;28;20044;-64
2021/09/27 07:25:54;;;;;;;0.20;0.20;;;;;;;5.79;53.38;99147.44;5054775;28;20183;-64
2021/09/27 07:28:22;;;;;;;0.20;0.20;;;;;;;5.89;53.23;99155.28;5054691;28;20492;-64
2021/09/27 07:30:50;;;;;;;0.20;0.20;;;;;;;5.98;53.02;99159.59;5053984;28;20081;-64
2021/09/27 07:33:18;;;;;;;0.20;0.20;;;;;;;5.89;53.22;99141.66;5054377;28;20040;-65
2021/09/27 07:35:44;;;;;;;0.25;0.25;;;;;;;5.85;53.35;99152.09;5054525;28;20056;-63
2021/09/27 07:38:10;;;;;;;0.20;0.20;;;;;;;5.88;53.34;99156.34;5054517;28;20051;-64
2021/09/27 07:40:38;;;;;;;0.20;0.20;;;;;;;5.92;53.38;99157.63;5054654;28;20048;-65
2021/09/27 07:43:08;;;;;;;0.20;0.20;;;;;;;5.83;53.37;99166.97;5054597;28;20049;-63
2021/09/27 07:45:35;;;;;;;0.20;0.20;;;;;;;5.70;53.63;99168.53;5054820;28;20099;-64
2021/09/27 07:48:04;;;;;;;0.20;0.20;;;;;;;5.75;53.64;99165.22;5054600;28;20151;-63
2021/09/27 07:50:30;;;;;;;0.20;0.20;;;;;;;5.84;53.31;99171.38;5054071;28;20044;-64
2021/09/27 07:52:56;;;;;;;0.20;0.20;;;;;;;5.87;53.25;99160.91;5054239;28;20056;-63
2021/09/27 07:55:22;;;;;;;0.20;0.20;;;;;;;5.93;53.13;99157.44;5054509;28;20407;-64
2021/09/27 07:57:48;;;;;;;0.20;0.20;;;;;;;5.96;53.12;99173.38;5054437;28;20487;-63
2021/09/27 08:00:15;;;;;;;0.17;0.17;;;;;;;5.89;53.18;99161.59;5053799;28;20072;-63
2021/09/27 08:02:42;;;;;;;0.20;0.20;;;;;;;5.80;53.34;99184.56;5054026;28;20044;-64
2021/09/27 08:05:11;;;;;;;0.20;0.20;;;;;;;5.77;53.39;99179.47;5054112;28;20040;-64
2021/09/27 08:07:37;;;;;;;0.20;0.20;;;;;;;5.84;53.10;99185.00;5053846;28;20136;-63
2021/09/27 08:10:05;;;;;;;0.28;0.28;;;;;;;5.85;52.99;99157.56;5053980;28;20551;-63
2021/09/27 08:12:31;;;;;;;0.20;0.20;;;;;;;5.83;53.02;99183.31;5054245;28;20407;-64
2021/09/27 08:14:57;;;;;;;0.20;0.20;;;;;;;5.79;53.06;99191.03;5036334;28;20041;-63
2021/09/27 08:17:23;;;;;;;0.20;0.20;;;;;;;5.80;52.97;99206.38;5053800;28;20045;-65
2021/09/27 08:19:49;;;;;;;0.20;0.20;;;;;;;5.86;52.70;99183.78;5053540;28;20441;-64
2021/09/27 08:22:15;;;;;;;0.20;0.20;;;;;;;6.02;52.50;99162.75;5036375;28;20044;-64
2021/09/27 08:24:41;;;;;;;2.20;0.73;;;;;;;6.23;51.94;99176.38;5048426;28;20072;-65
2021/09/27 08:27:07;;;;;;;0.28;0.28;;;;;;;6.31;51.80;99170.75;5044451;28;20072;-64
2021/09/27 08:29:35;;;;;;;0.20;0.20;;;;;;;6.38;51.67;99205.44;5041741;28;20050;-64
2021/09/27 08:32:01;;;;;;;0.20;0.20;;;;;;;6.45;51.42;99177.16;5051926;28;20137;-66
2021/09/27 08:34:27;;;;;;;0.45;0.45;;;;;;;6.50;51.40;99160.19;5045311;28;20180;-64
2021/09/27 08:36:52;;;;;;;0.20;0.20;;;;;;;6.41;51.60;99166.84;5042179;28;20488;-64
2021/09/27 08:39:18;;;;;;;0.30;0.30;;;;;;;6.37;51.80;99168.28;5044798;28;20467;-64
2021/09/27 08:41:52;;;;;;;0.20;0.20;;;;;;;6.35;51.78;99156.75;5049773;28;20041;-64
2021/09/27 08:44:30;;;;;;;0.20;0.20;;;;;;;6.26;51.83;99169.69;5050399;28;20041;-63
2021/09/27 08:47:05;;;;;;;0.10;0.10;;;;;;;6.23;51.94;99176.38;5049607;28;20116;-65
2021/09/27 08:49:55;;;;;;;0.20;0.20;;;;;;;6.22;51.87;99165.66;5050170;28;20151;-64
2021/09/27 08:52:25;;;;;;;0.25;0.25;;;;;;;6.24;51.73;99158.97;5050122;28;20453;-64
2021/09/27 08:54:52;;;;;;;0.22;0.22;;;;;;;6.29;51.63;99159.22;5049949;28;20047;-64
2021/09/27 08:57:55;;;;;;;0.13;0.13;;;;;;;6.35;51.52;99159.47;5050183;28;20613;-63
2021/09/27 09:00:48;;;;;;;0.30;0.30;;;;;;;6.40;51.42;99151.50;5049414;28;20049;-64
2021/09/27 09:03:38;;;;;;;0.98;0.45;;;;;;;6.45;51.34;99160.78;5032426;28;20384;-64
2021/09/27 09:06:39;;;;;;;0.20;0.20;;;;;;;6.55;51.00;99203.22;5057344;28;20147;-64
2021/09/27 09:09:41;;;;;;;0.20;0.20;;;;;;;6.57;50.89;99152.88;5064082;28;20415;-64
2021/09/27 09:12:32;;;;;;;0.20;0.20;;;;;;;6.63;50.86;99163.00;5026779;28;20040;-63
2021/09/27 09:15:24;;;;;;;0.40;0.40;;;;;;;6.56;50.93;99162.09;5069989;28;20047;-63
2021/09/27 09:18:04;;;;;;;0.20;0.20;;;;;;;6.44;51.22;99175.47;5051239;28;20471;-65
2021/09/27 09:20:38;;;;;;;0.20;0.20;;;;;;;6.37;51.34;99174.56;5069098;28;20071;-65
2021/09/27 09:23:06;;;;;;;0.10;0.10;;;;;;;6.38;51.49;99173.53;5069042;28;20053;-65
2021/09/27 09:25:35;;;;;;;0.20;0.20;;;;;;;6.42;51.20;99171.25;5069556;28;20036;-64
2021/09/27 09:28:03;;;;;;;0.20;0.20;;;;;;;6.46;51.00;99167.06;5069398;28;20040;-63
2021/09/27 09:30:56;;;;;;;0.47;0.47;;;;;;;6.49;50.82;99174.84;5068330;28;20067;-64
2021/09/27 09:34:08;;;;;;;0.17;0.17;;;;;;;6.51;50.65;99161.88;5051854;28;20033;-66
2021/09/27 09:36:39;;;;;;;0.30;0.30;;;;;;;6.61;50.54;99167.81;5014255;28;20044;-64
2021/09/27 09:39:34;;;;;;;0.20;0.20;;;;;;;6.78;49.99;99156.56;5051827;28;20588;-64
2021/09/27 09:42:16;;;;;;;0.35;0.35;;;;;;;6.82;49.98;99166.06;5063607;28;20458;-64
2021/09/27 09:44:45;;;;;;;0.20;0.20;;;;;;;6.88;49.78;99161.69;5070605;28;20414;-65
2021/09/27 09:47:12;;;;;;;0.20;0.20;;;;;;;6.94;49.57;99182.69;5070341;28;20047;-65
2021/09/27 09:49:56;;;;;;;0.20;0.20;;;;;;;6.96;49.61;99162.34;5070495;28;20490;-64
2021/09/27 09:52:49;;;;;;;0.20;0.20;;;;;;;6.93;49.48;99162.72;5069676;28;20076;-63
2021/09/27 09:55:33;;;;;;;0.22;0.22;;;;;;;6.91;49.78;99164.84;5063934;28;20047;-63
2021/09/27 09:58:05;;;;;;;0.30;0.30;;;;;;;6.93;49.66;99153.72;5070538;28;20410;-66
2021/09/27 10:00:34;;;;;;;0.20;0.20;;;;;;;6.91;49.72;99174.91;5070107;28;20192;-64
2021/09/27 10:03:01;;;;;;;0.20;0.20;;;;;;;6.87;49.81;99163.53;5070565;28;20040;-64
2021/09/27 10:05:34;;;;;;;0.20;0.20;;;;;;;6.92;49.66;99169.25;5069751;28;20086;-65
2021/09/27 10:08:04;;;;;;;0.20;0.20;;;;;;;6.96;49.75;99189.66;5070158;28;20041;-65
2021/09/27 10:10:36;;;;;;;0.65;0.60;;;;;;;7.03;49.54;99176.00;5067418;28;20043;-65
2021/09/27 10:13:06;;;;;;;0.20;0.20;;;;;;;7.10;49.51;99181.53;5069946;28;20068;-63
2021/09/27 10:15:35;;;;;;;0.20;0.20;;;;;;;7.16;49.51;99181.53;5069944;28;20059;-65
2021/09/27 10:18:05;;;;;;;0.20;0.20;;;;;;;7.19;49.31;99183.03;5070570;28;20044;-63
2021/09/27 10:20:39;;;;;;;0.20;0.20;;;;;;;7.10;49.37;99184.25;5070265;28;20120;-63
2021/09/27 10:23:12;;;;;;;0.25;0.25;;;;;;;7.01;49.63;99183.56;5070208;28;20499;-64
2021/09/27 10:25:42;;;;;;;0.20;0.20;;;;;;;7.07;49.48;99184.66;5070164;28;20071;-64
2021/09/27 10:28:12;;;;;;;0.20;0.20;;;;;;;7.15;49.31;99170.81;5070049;28;20040;-63
2021/09/27 10:30:42;;;;;;;0.20;0.20;;;;;;;7.31;49.10;99164.16;5070304;28;20102;-64
2021/09/27 10:33:21;;;;;;;0.25;0.25;;;;;;;7.45;48.67;99168.63;5069303;28;20044;-64
2021/09/27 10:35:58;;;;;;;0.38;0.30;;;;;;;7.57;48.60;99179.78;5058042;28;20128;-64
2021/09/27 10:38:49;;;;;;;0.20;0.20;;;;;;;7.73;48.43;99175.84;5058625;28;20126;-64
2021/09/27 10:41:26;;;;;;;0.20;0.20;;;;;;;7.81;48.15;99175.63;5057931;28;20043;-63
2021/09/27 10:44:01;;;;;;;0.20;0.20;;;;;;;7.85;48.27;99171.44;5063328;28;20052;-64
2021/09/27 10:46:35;;;;;;;0.25;0.25;;;;;;;7.86;48.27;99175.00;5059675;28;20048;-65
2021/09/27 10:49:03;;;;;;;0.20;0.20;;;;;;;7.83;48.20;99179.00;5057287;28;20491;-65
2021/09/27 10:51:35;;;;;;;0.45;0.45;;;;;;;7.71;48.42;99207.97;5059639;28;20043;-65
2021/09/27 10:54:24;;;;;;;0.20;0.20;;;;;;;7.58;48.66;99162.31;5056611;28;20075;-65
2021/09/27 10:56:55;;;;;;;0.20;0.20;;;;;;;7.50;48.87;99166.09;5058241;28;20036;-64
2021/09/27 10:59:44;;;;;;;0.20;0.20;;;;;;;7.51;48.71;99169.69;5059684;28;20124;-65
2021/09/27 11:02:28;;;;;;;0.20;0.20;;;;;;;7.55;48.66;99214.66;5044137;28;20048;-64
2021/09/27 11:05:03;;;;;;;0.47;0.47;;;;;;;7.55;48.64;99176.41;5062876;28;20568;-63
2021/09/27 11:07:40;;;;;;;0.30;0.30;;;;;;;7.55;48.60;99181.88;5059079;28;20064;-64
2021/09/27 11:10:34;;;;;;;0.20;0.20;;;;;;;7.53;48.53;99164.84;5052230;28;20036;-63
2021/09/27 11:13:00;;;;;;;0.20;0.20;;;;;;;7.48;48.51;99176.41;5038297;28;20037;-67
2021/09/27 11:15:31;;;;;;;0.20;0.20;;;;;;;7.52;48.48;99168.63;5056864;28;20052;-66
2021/09/27 11:18:24;;;;;;;0.20;0.20;;;;;;;7.50;48.42;99173.47;5052039;28;20036;-67
2021/09/27 11:20:50;;;;;;;0.28;0.28;;;;;;;7.48;48.47;99187.34;5057754;28;20047;-66
2021/09/27 11:23:19;;;;;;;0.22;0.22;;;;;;;7.49;48.27;99220.94;5061128;28;20040;-69
2021/09/27 11:26:07;;;;;;;0.20;0.20;;;;;;;7.41;48.38;99177.44;5064199;28;20044;-65
2021/09/27 11:28:49;;;;;;;0.30;0.30;;;;;;;7.34;48.23;99180.13;5046096;28;20037;-66
2021/09/27 11:31:27;;;;;;;0.20;0.20;;;;;;;7.32;48.34;99199.47;5064101;28;20089;-67
2021/09/27 11:34:18;;;;;;;0.20;0.20;;;;;;;7.30;48.21;99178.84;5062468;28;20408;-66
2021/09/27 11:36:47;;;;;;;0.17;0.17;;;;;;;7.29;48.11;99194.41;5064052;28;20534;-66
2021/09/27 11:39:45;;;;;;;0.30;0.30;;;;;;;7.29;48.00;99172.56;5062345;28;20043;-66
2021/09/27 11:42:25;;;;;;;0.20;0.20;;;;;;;7.32;47.86;99172.16;5064059;28;20043;-66
2021/09/27 11:45:10;;;;;;;0.30;0.30;;;;;;;7.33;47.91;99195.69;5062079;28;20187;-66
2021/09/27 11:47:42;;;;;;;;;;;;;;;7.31;47.63;99186.00;5061621;28;20175;-67
2021/09/27 11:50:33;;;;;;;0.10;0.10;;;;;;;7.29;47.79;99191.69;5061755;28;19916;-67
2021/09/27 11:53:06;;;;;;;0.40;0.40;;;;;;;7.30;47.92;99211.63;5023232;28;20040;-68
2021/09/27 11:55:40;;;;;;;0.20;0.20;;;;;;;7.27;47.75;99195.66;5061549;28;20496;-65
2021/09/27 11:58:30;;;;;;;0.20;0.20;;;;;;;7.21;47.78;99194.56;5061446;28;20522;-67
2021/09/27 12:01:05;;;;;;;0.20;0.20;;;;;;;7.17;47.72;99187.84;5047218;28;20080;-67
2021/09/27 12:03:44;;;;;;;0.20;0.20;;;;;;;7.14;47.57;99180.03;5061212;28;20106;-66
2021/09/27 12:06:16;;;;;;;0.22;0.22;;;;;;;7.12;47.63;99177.53;5064056;28;20052;-68
2021/09/27 12:09:02;;;;;;;0.20;0.20;;;;;;;7.14;47.52;99193.69;5071748;28;20070;-67
2021/09/27 12:11:28;;;;;;;0.20;0.20;;;;;;;7.12;47.59;99212.19;5068610;28;20051;-66
2021/09/27 12:13:59;;;;;;;0.10;0.10;;;;;;;7.10;47.58;99190.53;5071991;28;20037;-65
2021/09/27 12:16:30;;;;;;;0.30;0.30;;;;;;;7.09;47.65;99194.31;5072007;28;20044;-66
2021/09/27 12:19:12;;;;;;;0.40;0.40;;;;;;;7.08;47.48;99191.78;5060941;28;20041;-67
2021/09/27 12:21:42;;;;;;;0.73;0.38;;;;;;;7.08;47.56;99180.88;5069801;28;20446;-67
2021/09/27 12:24:12;;;;;;;0.25;0.25;;;;;;;7.07;47.57;99185.50;5071837;28;20135;-66
2021/09/27 12:26:51;;;;;;;0.20;0.20;;;;;;;7.06;47.68;99196.63;5071744;28;20033;-67
2021/09/27 12:29:23;;;;;;;0.20;0.20;;;;;;;7.03;47.63;99191.56;5066510;28;20036;-66
2021/09/27 12:31:55;;;;;;;0.20;0.20;;;;;;;6.97;47.67;99201.41;5071747;28;20032;-66